Pagrindinis puslapis
METAR-TAF:

METAR-TAF

Oro uostai :

Santjagas, Čilė

platuma: 33-23S, ilguma: 070-47W, Aukštis: 475 m

Dabartinis oras

Ataskaita buvo paskelbta 26 minutes, ne 18:00 UTC
Vėjas 14 kt iš Pietvakarių, svyruoja nuo Pietų ir Vakarų
Temperatūra 26°C
Drėgmė 34%
Slėgis 1017 hPa
Matomumas 10 km arba daugiau
Mažai debesys ne aukštis 6000 ft

METAR: SCEL 241800Z 22014KT 190V260 9999 FEW060 26/09 Q1017 NOSIG

Laikas: 15:26 (18:26 UTC)

Prognozė

Ataskaita buvo paskelbta 2 valandos ir 26 minutes, ne 16:00 UTC
Prognozė galioja nuo 24 metu 18 UTC su 25 metu 18 UTC
Vėjas 18 kt iš Pietų/Pietvakarių
Matomumas 10 km arba daugiau
nėra debesų žemiau 1500 m ir nėra kamuolinių lietaus debesų
Tapsmas
nuo 25 metu 01 UTC su 25 metu 03 UTC
Vėjas 8 kt iš Pietų/Pietryčių
Tapsmas
nuo 25 metu 09 UTC su 25 metu 11 UTC
Vėjas 2 kt nuo kintamojo kryptimis
Tapsmas
nuo 25 metu 14 UTC su 25 metu 16 UTC
Vėjas 6 kt iš Pietų

TAF: SCEL 241600Z 2418/2518 21018KT CAVOK TX28/2419Z TN09/2511Z BECMG 2501/2503 15008KT BECMG 2509/2511 VRB02KT BECMG 2514/2516 17006KT

Orai ataskaitas ir orų prognozės (METAR, TAF).

turimą stotys yra geltonos ir raudonos taškus žemėlapyje.

Perkelti pele per norėdami pamatyti stoties vardą.

Tada spustelėkite, norėdami matyti oro stebėjimo ir prognozės.

Norėdami pakeisti žemėlapį: spustelėkite ant žalios mygtukų su juodo kryžiaus žemyn,; žalią mygtuką su brūkšneliu, jei norite nutolinti; arba žalių rodyklių gretimoms žemėlapius.


METAR-TAF: